Time;durP1;ratioP1;P1;durP2;ratioP2;P2;SDS_P1;SDS_P2;PMS_P1;PMS_P2;Temp;Humidity;BMP_temperature;BMP_pressure;BME280_temperature;BME280_humidity;BME280_pressure;Samples;Min_cycle;Max_cycle;Signal;HPM_P1;HPM_P2
2021/01/15 00:01:18;;;;;;;20.30;8.82;;;1.40;85.20;;;;;;5045364;28;20581;-74
2021/01/15 00:03:44;;;;;;;19.63;8.82;;;1.40;85.50;;;;;;5044301;28;20187;-75
2021/01/15 00:06:22;;;;;;;17.37;8.57;;;1.40;84.70;;;;;;5047761;28;20557;-73
2021/01/15 00:08:48;;;;;;;16.58;8.32;;;1.40;84.60;;;;;;5045450;28;20231;-74
2021/01/15 00:11:20;;;;;;;22.37;8.43;;;1.40;84.90;;;;;;5051658;28;20954;-74
2021/01/15 00:13:46;;;;;;;21.33;9.35;;;1.40;85.50;;;;;;5065367;28;20199;-73
2021/01/15 00:16:25;;;;;;;14.17;8.10;;;1.40;85.00;;;;;;5044868;28;20212;-74
2021/01/15 00:18:55;;;;;;;16.67;7.93;;;1.40;84.90;;;;;;5047095;28;20188;-73
2021/01/15 00:21:25;;;;;;;18.83;7.72;;;1.30;85.00;;;;;;5053669;28;20290;-75
2021/01/15 00:23:52;;;;;;;22.20;7.60;;;1.30;84.70;;;;;;5050485;28;20291;-74
2021/01/15 00:26:19;;;;;;;17.83;7.45;;;1.30;85.00;;;;;;5045895;28;20311;-74
2021/01/15 00:28:45;;;;;;;14.35;7.22;;;1.30;85.20;;;;;;5046303;28;20567;-72
2021/01/15 00:31:11;;;;;;;14.18;7.10;;;1.20;84.70;;;;;;5044973;28;20280;-73
2021/01/15 00:33:37;;;;;;;11.53;6.77;;;1.20;84.90;;;;;;5045706;28;20648;-74
2021/01/15 00:36:03;;;;;;;12.73;7.00;;;1.30;84.70;;;;;;5044484;28;20216;-74
2021/01/15 00:38:30;;;;;;;15.13;7.70;;;1.30;84.60;;;;;;5049290;28;20189;-73
2021/01/15 00:41:07;;;;;;;16.77;8.23;;;1.30;83.80;;;;;;5049423;28;21057;-74
2021/01/15 00:43:33;;;;;;;16.25;7.20;;;1.30;83.60;;;;;;5049569;28;20215;-75
2021/01/15 00:45:59;;;;;;;15.60;7.80;;;1.20;83.60;;;;;;5049182;28;20224;-73
2021/01/15 00:48:25;;;;;;;15.77;6.27;;;1.10;84.40;;;;;;5054707;28;20517;-73
2021/01/15 00:50:52;;;;;;;10.82;6.35;;;1.10;84.70;;;;;;5058522;28;20418;-75
2021/01/15 00:53:18;;;;;;;11.95;6.63;;;1.20;84.70;;;;;;5048651;28;20181;-72
2021/01/15 00:55:43;;;;;;;11.38;6.05;;;1.10;84.40;;;;;;5048893;28;20253;-72
2021/01/15 00:58:13;;;;;;;13.03;7.27;;;1.10;83.80;;;;;;5048503;28;20574;-73
2021/01/15 01:00:39;;;;;;;12.50;6.07;;;1.10;84.40;;;;;;5045569;28;20191;-75
2021/01/15 01:03:08;;;;;;;12.45;5.53;;;1.10;84.40;;;;;;5051109;28;20748;-73
2021/01/15 01:05:34;;;;;;;11.35;5.10;;;1.10;84.40;;;;;;5050813;28;20316;-74
2021/01/15 01:08:00;;;;;;;10.00;5.80;;;1.10;84.00;;;;;;5063294;28;20335;-73
2021/01/15 01:10:26;;;;;;;10.67;5.73;;;1.10;83.70;;;;;;5051799;28;20192;-74
2021/01/15 01:12:52;;;;;;;8.93;5.40;;;1.00;83.70;;;;;;5050412;28;20459;-74
2021/01/15 01:15:18;;;;;;;7.40;4.40;;;1.00;83.80;;;;;;5064326;28;20200;-73
2021/01/15 01:17:44;;;;;;;9.67;4.53;;;1.00;83.70;;;;;;5061782;28;20437;-74
2021/01/15 01:20:11;;;;;;;12.32;5.50;;;0.90;83.40;;;;;;5051518;28;20192;-73
2021/01/15 01:22:38;;;;;;;13.38;5.30;;;0.90;83.70;;;;;;5051092;28;20262;-74
2021/01/15 01:25:05;;;;;;;10.82;5.18;;;0.80;83.40;;;;;;5049798;28;20581;-73
2021/01/15 01:27:31;;;;;;;7.53;4.65;;;0.80;84.30;;;;;;5050368;28;20187;-74
2021/01/15 01:29:57;;;;;;;10.00;5.23;;;0.80;84.30;;;;;;5064160;28;20191;-73
2021/01/15 01:32:22;;;;;;;8.97;4.50;;;0.80;84.30;;;;;;5053682;28;20223;-73
2021/01/15 01:34:48;;;;;;;9.60;4.87;;;0.90;84.30;;;;;;5063378;28;20281;-73
2021/01/15 01:37:14;;;;;;;8.50;4.80;;;0.90;84.10;;;;;;5053336;28;20656;-74
2021/01/15 01:39:40;;;;;;;8.57;4.87;;;0.90;83.80;;;;;;5055847;28;20189;-73
2021/01/15 01:42:05;;;;;;;9.10;5.20;;;0.90;83.40;;;;;;5060707;28;20216;-73
2021/01/15 01:44:31;;;;;;;10.10;5.10;;;0.90;83.30;;;;;;5059045;28;20210;-76
2021/01/15 01:46:57;;;;;;;8.57;4.93;;;0.90;83.00;;;;;;5052141;28;20596;-73
2021/01/15 01:49:23;;;;;;;7.83;4.70;;;0.90;82.80;;;;;;5050221;28;20188;-74
2021/01/15 01:51:50;;;;;;;8.27;4.45;;;0.90;83.30;;;;;;5052325;28;20196;-75
2021/01/15 01:54:16;;;;;;;8.75;4.68;;;0.90;83.10;;;;;;5055741;28;20185;-73
2021/01/15 01:56:42;;;;;;;8.60;4.57;;;0.90;83.40;;;;;;5055912;28;20196;-74
2021/01/15 01:59:12;;;;;;;8.90;5.00;;;0.80;83.10;;;;;;5063921;28;20214;-74
2021/01/15 02:01:37;;;;;;;8.18;4.45;;;0.80;83.10;;;;;;5052074;28;20227;-75
2021/01/15 02:04:04;;;;;;;12.00;4.30;;;0.70;83.30;;;;;;5050561;28;20523;-75
2021/01/15 02:06:34;;;;;;;7.43;4.38;;;0.70;83.40;;;;;;5049964;28;20191;-74
2021/01/15 02:09:04;;;;;;;7.60;4.40;;;0.70;83.60;;;;;;5050545;28;20266;-74
2021/01/15 02:11:33;;;;;;;9.55;4.07;;;0.70;83.30;;;;;;5070257;28;20191;-73
2021/01/15 02:14:18;;;;;;;6.80;3.80;;;0.60;82.80;;;;;;5070164;28;20779;-73
2021/01/15 02:16:44;;;;;;;9.05;3.88;;;0.60;83.60;;;;;;5071699;28;20199;-75
2021/01/15 02:19:25;;;;;;;7.07;3.57;;;0.60;83.40;;;;;;5073373;28;20184;-74
2021/01/15 02:22:21;;;;;;;13.02;4.60;;;0.60;83.40;;;;;;5072226;28;20457;-73
2021/01/15 02:25:26;;;;;;;10.48;4.35;;;0.60;83.40;;;;;;5040237;28;20213;-73
2021/01/15 02:28:10;;;;;;;6.28;3.70;;;0.60;83.40;;;;;;5037762;28;20230;-72
2021/01/15 02:30:53;;;;;;;7.30;3.50;;;0.60;83.30;;;;;;5048566;28;20192;-74
2021/01/15 02:33:33;;;;;;;6.28;4.10;;;0.50;83.60;;;;;;5048239;28;20302;-73
2021/01/15 02:36:23;;;;;;;8.27;4.32;;;0.50;83.60;;;;;;5047878;28;20207;-73
2021/01/15 02:39:25;;;;;;;7.45;4.80;;;0.50;83.60;;;;;;5050019;28;20211;-72
2021/01/15 02:41:54;;;;;;;9.75;3.90;;;0.50;83.30;;;;;;5049875;28;20701;-74
2021/01/15 02:44:21;;;;;;;5.25;3.53;;;0.50;82.80;;;;;;5048695;28;20185;-73
2021/01/15 02:47:00;;;;;;;7.85;4.20;;;0.40;82.20;;;;;;5049955;28;20207;-75
2021/01/15 02:49:27;;;;;;;7.15;3.92;;;0.30;82.40;;;;;;5049290;28;20193;-73
2021/01/15 02:51:53;;;;;;;7.28;4.03;;;0.30;83.00;;;;;;5048420;28;20572;-72
2021/01/15 02:54:19;;;;;;;6.15;3.88;;;0.30;82.80;;;;;;5047285;28;20185;-72
2021/01/15 02:56:45;;;;;;;5.85;3.30;;;0.30;82.70;;;;;;5048177;28;20271;-74
2021/01/15 02:59:11;;;;;;;7.10;3.40;;;0.30;83.00;;;;;;5049320;28;20754;-73
2021/01/15 03:01:46;;;;;;;7.33;3.93;;;0.40;83.30;;;;;;5048520;28;20581;-73
2021/01/15 03:04:26;;;;;;;7.20;3.72;;;0.40;83.00;;;;;;5048511;28;20183;-73
2021/01/15 03:06:57;;;;;;;8.55;4.43;;;0.30;82.10;;;;;;5049345;28;20176;-72
2021/01/15 03:09:30;;;;;;;7.70;4.45;;;0.30;82.70;;;;;;5060238;28;20183;-72
2021/01/15 03:12:01;;;;;;;9.63;4.22;;;0.30;82.70;;;;;;5048317;28;20200;-72
2021/01/15 03:14:30;;;;;;;7.40;4.05;;;0.30;82.40;;;;;;5046855;28;20253;-73
2021/01/15 03:16:58;;;;;;;9.38;4.20;;;0.30;82.70;;;;;;5049282;28;21038;-73
2021/01/15 03:19:24;;;;;;;6.85;3.92;;;0.30;82.40;;;;;;5048849;28;20180;-72
2021/01/15 03:21:50;;;;;;;7.20;4.33;;;0.30;82.20;;;;;;5049034;28;20230;-72
2021/01/15 03:24:17;;;;;;;7.70;3.80;;;0.20;82.10;;;;;;5067100;28;20427;-73
2021/01/15 03:26:42;;;;;;;9.30;4.40;;;0.20;82.40;;;;;;5056982;28;20184;-72
2021/01/15 03:29:13;;;;;;;9.03;4.33;;;0.20;82.40;;;;;;5048274;28;20197;-72
2021/01/15 03:31:42;;;;;;;7.80;4.65;;;0.20;82.20;;;;;;5049688;28;20433;-72
2021/01/15 03:34:08;;;;;;;6.60;4.00;;;0.10;82.20;;;;;;5035841;28;20204;-70
2021/01/15 03:36:35;;;;;;;5.95;3.72;;;0.20;82.40;;;;;;5049584;28;20192;-71
2021/01/15 03:39:01;;;;;;;5.90;3.83;;;0.10;82.50;;;;;;5062449;28;20192;-72
2021/01/15 03:41:27;;;;;;;8.27;4.28;;;0.10;82.50;;;;;;5048978;28;20690;-71
2021/01/15 03:43:53;;;;;;;6.17;4.17;;;0.10;82.20;;;;;;5047895;28;20195;-72
2021/01/15 03:46:19;;;;;;;7.73;4.20;;;0.10;81.90;;;;;;5048333;28;20280;-70
2021/01/15 03:48:45;;;;;;;8.50;4.60;;;0.10;82.20;;;;;;5047915;28;20594;-71
2021/01/15 03:51:11;;;;;;;7.03;3.75;;;0.10;82.20;;;;;;5048785;28;20315;-72
2021/01/15 03:53:37;;;;;;;8.07;4.47;;;0.00;82.10;;;;;;5049451;28;20698;-71
2021/01/15 03:56:03;;;;;;;7.50;4.23;;;0.00;82.40;;;;;;5047202;28;20306;-71
2021/01/15 03:58:29;;;;;;;8.07;4.37;;;0.00;82.80;;;;;;5049885;28;20188;-71
2021/01/15 04:00:54;;;;;;;7.07;3.50;;;0.00;83.10;;;;;;5050403;28;20778;-73
2021/01/15 04:03:20;;;;;;;6.93;4.13;;;0.00;83.00;;;;;;5048748;28;20691;-72
2021/01/15 04:05:46;;;;;;;6.40;4.10;;;0.10;82.70;;;;;;5063728;28;20204;-72
2021/01/15 04:08:12;;;;;;;8.20;4.27;;;0.00;82.20;;;;;;5067972;28;20659;-72
2021/01/15 04:10:37;;;;;;;6.37;4.17;;;0.00;82.50;;;;;;5056352;28;20184;-71
2021/01/15 04:13:03;;;;;;;10.33;4.73;;;0.00;82.70;;;;;;5051766;28;20187;-70
2021/01/15 04:15:29;;;;;;;6.90;4.40;;;-0.10;83.00;;;;;;5053206;28;20570;-72
2021/01/15 04:17:59;;;;;;;8.20;4.47;;;-0.20;83.40;;;;;;5055345;28;20585;-73
2021/01/15 04:20:25;;;;;;;8.05;4.43;;;-0.20;83.70;;;;;;5054766;28;20184;-72
2021/01/15 04:22:51;;;;;;;7.57;4.87;;;-0.20;83.70;;;;;;5052907;28;20208;-71
2021/01/15 04:25:16;;;;;;;7.70;4.37;;;-0.20;83.60;;;;;;5052703;28;20700;-72
2021/01/15 04:27:43;;;;;;;10.30;5.23;;;-0.10;83.40;;;;;;5055050;28;20596;-71
2021/01/15 04:30:10;;;;;;;8.02;4.30;;;-0.20;83.40;;;;;;5053079;28;20358;-73
2021/01/15 04:32:46;;;;;;;7.53;4.30;;;-0.20;83.60;;;;;;5049420;28;20189;-71
2021/01/15 04:35:14;;;;;;;10.23;4.53;;;-0.30;83.70;;;;;;5052308;28;20269;-74
2021/01/15 04:37:40;;;;;;;8.63;4.65;;;-0.30;83.80;;;;;;5052749;28;20268;-71
2021/01/15 04:40:06;;;;;;;6.10;3.73;;;-0.40;84.00;;;;;;5051950;28;20259;-72
2021/01/15 04:42:33;;;;;;;6.85;4.15;;;-0.40;84.40;;;;;;5051976;28;21395;-73
2021/01/15 04:44:59;;;;;;;6.32;4.05;;;-0.50;84.40;;;;;;5051237;28;20209;-70
2021/01/15 04:47:26;;;;;;;11.80;5.00;;;-0.50;84.70;;;;;;5062568;28;20576;-73
2021/01/15 04:49:52;;;;;;;11.02;4.97;;;-0.50;84.90;;;;;;5057312;28;20572;-71
2021/01/15 04:52:19;;;;;;;7.70;5.10;;;-0.60;85.20;;;;;;5070627;28;20183;-73
2021/01/15 04:54:56;;;;;;;12.25;5.10;;;-0.60;85.50;;;;;;5053247;28;20205;-72
2021/01/15 04:57:26;;;;;;;9.20;5.10;;;-0.60;85.50;;;;;;5051273;28;20184;-72
2021/01/15 04:59:54;;;;;;;8.30;5.35;;;-0.70;85.90;;;;;;5056203;28;20183;-70
2021/01/15 05:02:20;;;;;;;11.38;5.57;;;-0.70;86.30;;;;;;5057044;28;20212;-72
2021/01/15 05:04:46;;;;;;;25.63;6.07;;;-0.70;86.90;;;;;;5057820;28;20203;-72
2021/01/15 05:07:13;;;;;;;13.07;5.60;;;-0.80;87.30;;;;;;5072081;28;20287;-73
2021/01/15 05:09:44;;;;;;;11.13;5.03;;;-0.80;87.60;;;;;;5071881;28;20451;-72
2021/01/15 05:12:12;;;;;;;13.68;5.50;;;-0.80;87.80;;;;;;5059459;28;20215;-71
2021/01/15 05:14:39;;;;;;;11.35;4.97;;;-0.80;88.00;;;;;;5052054;28;20220;-73
2021/01/15 05:17:06;;;;;;;10.07;5.50;;;-0.80;88.30;;;;;;5053796;28;20184;-72
2021/01/15 05:19:37;;;;;;;11.82;6.35;;;-0.80;88.30;;;;;;5053355;28;20203;-71
2021/01/15 05:22:03;;;;;;;13.07;5.80;;;-0.90;88.00;;;;;;5051331;28;20212;-73
2021/01/15 05:24:28;;;;;;;8.90;4.80;;;-0.90;88.00;;;;;;5051023;28;20551;-71
2021/01/15 05:26:54;;;;;;;11.40;5.77;;;-0.90;88.30;;;;;;5053754;28;20467;-71
2021/01/15 05:29:20;;;;;;;9.50;5.20;;;-0.90;88.30;;;;;;5064782;28;20505;-73
2021/01/15 05:31:56;;;;;;;12.70;5.83;;;-1.00;88.40;;;;;;5052960;28;20181;-72
2021/01/15 05:34:26;;;;;;;11.27;5.55;;;-0.90;88.00;;;;;;5050940;28;20227;-75
2021/01/15 05:36:53;;;;;;;8.30;5.05;;;-0.80;87.70;;;;;;5051767;28;20910;-73
2021/01/15 05:39:27;;;;;;;14.25;5.60;;;-0.80;87.60;;;;;;5050748;28;20228;-73
2021/01/15 05:42:01;;;;;;;10.00;5.47;;;-0.80;88.00;;;;;;5063985;28;20277;-75
2021/01/15 05:44:29;;;;;;;9.25;5.45;;;-0.90;88.70;;;;;;5050790;28;20250;-74
2021/01/15 05:46:56;;;;;;;8.02;4.85;;;-0.90;89.00;;;;;;5064944;28;20177;-73
2021/01/15 05:49:22;;;;;;;10.45;5.82;;;-0.80;89.00;;;;;;5065230;28;20242;-74
2021/01/15 05:51:48;;;;;;;8.10;5.10;;;-0.80;88.70;;;;;;5053014;28;20267;-73
2021/01/15 05:54:29;;;;;;;15.67;6.00;;;-0.80;88.90;;;;;;5050925;28;20538;-72
2021/01/15 05:56:56;;;;;;;10.60;5.95;;;-0.80;88.90;;;;;;5059347;28;20183;-75
2021/01/15 05:59:21;;;;;;;11.25;5.40;;;-0.90;89.00;;;;;;5056934;28;20314;-73
2021/01/15 06:01:58;;;;;;;10.00;5.60;;;-0.90;89.00;;;;;;5050631;28;20733;-73
2021/01/15 06:04:33;;;;;;;9.98;5.20;;;-1.00;89.00;;;;;;5049923;28;20184;-72
2021/01/15 06:07:10;;;;;;;10.35;5.53;;;-1.00;89.00;;;;;;5050819;28;20263;-72
2021/01/15 06:09:37;;;;;;;14.25;5.00;;;-1.00;89.00;;;;;;5061197;28;20185;-74
2021/01/15 06:12:12;;;;;;;10.65;5.30;;;-1.00;88.90;;;;;;5051902;28;20227;-73
2021/01/15 06:14:52;;;;;;;12.07;5.38;;;-1.10;88.90;;;;;;5037538;28;20226;-73
2021/01/15 06:17:19;;;;;;;8.10;4.82;;;-1.10;88.90;;;;;;5062578;28;20188;-74
2021/01/15 06:19:53;;;;;;;13.82;5.80;;;-1.10;89.00;;;;;;5050820;28;20189;-74
2021/01/15 06:22:28;;;;;;;11.38;5.40;;;-1.10;89.20;;;;;;5050438;28;20295;-72
2021/01/15 06:25:13;;;;;;;10.70;5.85;;;-1.00;89.50;;;;;;5049767;28;20200;-74
2021/01/15 06:27:41;;;;;;;12.48;5.40;;;-1.10;89.20;;;;;;5038774;28;20201;-72
2021/01/15 06:30:28;;;;;;;11.75;5.65;;;-1.10;89.30;;;;;;5052296;28;20184;-73
2021/01/15 06:32:55;;;;;;;10.95;5.78;;;-1.10;89.20;;;;;;4988002;28;20214;-72
2021/01/15 06:35:23;;;;;;;15.48;6.35;;;-1.10;89.30;;;;;;4970177;28;20218;-73
2021/01/15 06:37:59;;;;;;;11.00;5.95;;;-1.00;89.00;;;;;;4980358;28;20204;-73
2021/01/15 06:40:45;;;;;;;11.48;5.18;;;-1.00;88.90;;;;;;4982177;28;20193;-74
2021/01/15 06:43:36;;;;;;;10.77;5.35;;;-1.10;88.90;;;;;;4983571;28;20253;-73
2021/01/15 06:46:03;;;;;;;13.20;6.70;;;-1.10;88.90;;;;;;4959546;28;20245;-74
2021/01/15 06:48:39;;;;;;;9.73;5.57;;;-1.00;88.90;;;;;;4974181;28;20186;-73
2021/01/15 06:51:06;;;;;;;13.57;6.72;;;-1.00;88.90;;;;;;4957992;28;20202;-74
2021/01/15 06:53:41;;;;;;;10.60;5.90;;;-0.90;88.60;;;;;;4952256;28;20183;-75
2021/01/15 06:56:08;;;;;;;13.68;5.60;;;-1.00;88.10;;;;;;4952284;28;20733;-74
2021/01/15 06:58:38;;;;;;;12.38;6.05;;;-1.00;87.80;;;;;;4975924;28;20572;-74
2021/01/15 07:01:22;;;;;;;22.90;6.47;;;-1.00;87.60;;;;;;4970017;28;20187;-74
2021/01/15 07:04:16;;;;;;;11.32;5.82;;;-1.00;87.10;;;;;;4962335;28;20547;-73
2021/01/15 07:07:09;;;;;;;9.68;5.82;;;-1.00;86.60;;;;;;4960909;28;20219;-74
2021/01/15 07:09:35;;;;;;;12.07;6.00;;;-1.10;86.50;;;;;;4990672;28;20653;-75
2021/01/15 07:12:13;;;;;;;15.07;6.60;;;-1.10;86.90;;;;;;5052225;28;20192;-75
2021/01/15 07:14:47;;;;;;;17.48;6.03;;;-1.10;86.80;;;;;;5047691;28;20212;-73
2021/01/15 07:17:36;;;;;;;12.10;5.95;;;-1.00;86.60;;;;;;5066545;28;20211;-73
2021/01/15 07:20:19;;;;;;;10.63;5.40;;;-1.00;86.60;;;;;;5050422;28;20203;-75
2021/01/15 07:23:00;;;;;;;14.38;5.78;;;-1.00;86.50;;;;;;5049512;28;20215;-75
2021/01/15 07:25:26;;;;;;;10.55;6.15;;;-1.00;86.80;;;;;;5049763;28;20272;-73
2021/01/15 07:27:53;;;;;;;14.38;6.40;;;-1.00;87.30;;;;;;5049133;28;20262;-75
2021/01/15 07:30:28;;;;;;;9.85;6.05;;;-1.00;87.30;;;;;;5047430;28;20184;-73
2021/01/15 07:32:56;;;;;;;10.88;6.10;;;-1.00;86.90;;;;;;5044674;28;20245;-73
2021/01/15 07:35:25;;;;;;;10.05;6.05;;;-1.00;86.30;;;;;;5049535;28;20212;-73
2021/01/15 07:38:06;;;;;;;17.83;7.47;;;-1.00;86.30;;;;;;5050931;28;20216;-72
2021/01/15 07:40:34;;;;;;;13.73;6.78;;;-1.00;86.50;;;;;;5073388;28;20192;-74
2021/01/15 07:43:00;;;;;;;14.57;7.32;;;-1.10;87.10;;;;;;5052616;28;20212;-73
2021/01/15 07:45:26;;;;;;;15.47;7.47;;;-1.10;87.60;;;;;;5049834;28;20862;-75
2021/01/15 07:48:06;;;;;;;14.90;7.03;;;-1.00;87.80;;;;;;5049476;28;20267;-74
2021/01/15 07:50:34;;;;;;;28.20;12.93;;;-1.00;88.00;;;;;;5046827;28;20192;-74
2021/01/15 07:53:24;;;;;;;15.40;8.10;;;-1.10;88.00;;;;;;5049081;28;20263;-74
2021/01/15 07:56:00;;;;;;;23.42;7.85;;;-1.10;88.10;;;;;;5037375;28;20272;-73
2021/01/15 07:58:44;;;;;;;15.88;7.07;;;-1.10;88.40;;;;;;5048841;28;20212;-73
2021/01/15 08:01:18;;;;;;;22.35;6.70;;;-1.00;88.30;;;;;;5048150;28;20184;-72
2021/01/15 08:03:46;;;;;;;15.18;6.88;;;-1.00;88.10;;;;;;5048398;28;20176;-72
2021/01/15 08:06:15;;;;;;;19.13;7.85;;;-1.00;88.10;;;;;;5047698;28;20262;-73
2021/01/15 08:08:57;;;;;;;17.55;7.40;;;-1.00;88.30;;;;;;5048529;28;20191;-73
2021/01/15 08:11:23;;;;;;;19.20;9.00;;;-0.80;88.30;;;;;;5042096;28;20190;-73
2021/01/15 08:13:49;;;;;;;13.67;6.87;;;-0.80;87.00;;;;;;5054585;28;20655;-73
2021/01/15 08:16:15;;;;;;;15.53;8.60;;;-0.80;86.20;;;;;;5053296;28;20442;-72
2021/01/15 08:18:43;;;;;;;15.20;7.27;;;-0.70;85.70;;;;;;5068461;28;20913;-72
2021/01/15 08:21:09;;;;;;;18.42;8.85;;;-0.70;85.30;;;;;;5048312;28;20905;-74
2021/01/15 08:23:34;;;;;;;20.73;7.87;;;-0.70;85.30;;;;;;5048809;28;20256;-72
2021/01/15 08:26:00;;;;;;;20.37;7.70;;;-0.70;85.30;;;;;;5048428;28;20949;-73
2021/01/15 08:28:26;;;;;;;17.20;8.93;;;-0.70;85.00;;;;;;5050079;28;20901;-72
2021/01/15 08:31:06;;;;;;;20.33;8.90;;;-0.60;84.70;;;;;;5048362;28;20189;-72
2021/01/15 08:33:33;;;;;;;14.70;7.90;;;-0.60;84.70;;;;;;5048013;28;20438;-72
2021/01/15 08:36:01;;;;;;;19.27;9.30;;;-0.50;84.40;;;;;;5055981;28;20211;-73
2021/01/15 08:38:35;;;;;;;21.02;8.82;;;-0.50;84.30;;;;;;5052979;28;20189;-73
2021/01/15 08:41:15;;;;;;;17.00;9.00;;;-0.50;84.00;;;;;;5048046;28;20172;-73
2021/01/15 08:43:41;;;;;;;17.60;8.52;;;-0.50;84.30;;;;;;5053410;28;20187;-73
2021/01/15 08:46:15;;;;;;;18.60;9.05;;;-0.50;84.30;;;;;;5067453;28;20218;-72
2021/01/15 08:48:41;;;;;;;22.23;9.55;;;-0.40;84.30;;;;;;5068271;28;20217;-72
2021/01/15 08:51:09;;;;;;;15.52;8.05;;;-0.50;84.30;;;;;;5066054;28;20576;-72
2021/01/15 08:54:04;;;;;;;19.95;8.45;;;-0.50;84.40;;;;;;5060923;28;20820;-73
2021/01/15 08:56:34;;;;;;;19.95;8.85;;;-0.50;84.00;;;;;;5059294;28;20219;-73
2021/01/15 08:59:00;;;;;;;16.00;9.07;;;-0.50;83.80;;;;;;5049132;28;20177;-73
2021/01/15 09:01:31;;;;;;;18.23;9.80;;;-0.60;84.10;;;;;;5051326;28;20377;-73
2021/01/15 09:04:01;;;;;;;20.45;9.70;;;-0.50;84.40;;;;;;5054541;28;20433;-73
2021/01/15 09:06:28;;;;;;;18.58;8.88;;;-0.50;84.30;;;;;;5065075;28;20311;-72
2021/01/15 09:08:58;;;;;;;20.02;9.18;;;-0.50;84.40;;;;;;5061042;28;20177;-72
2021/01/15 09:11:26;;;;;;;18.42;9.93;;;-0.60;84.30;;;;;;5040142;28;20180;-73
2021/01/15 09:13:52;;;;;;;22.77;9.20;;;-0.60;83.80;;;;;;5051162;28;20192;-74
2021/01/15 09:16:21;;;;;;;17.27;9.45;;;-0.60;84.00;;;;;;5054248;28;20207;-72
2021/01/15 09:18:48;;;;;;;22.48;9.55;;;-0.50;84.10;;;;;;5053311;28;20189;-71
2021/01/15 09:21:13;;;;;;;23.77;9.50;;;-0.50;84.00;;;;;;5051728;28;20188;-71
2021/01/15 09:23:39;;;;;;;22.47;9.70;;;-0.40;83.80;;;;;;5062955;28;20191;-71
2021/01/15 09:26:05;;;;;;;17.33;9.20;;;-0.40;83.30;;;;;;5050679;28;20269;-72
2021/01/15 09:28:30;;;;;;;21.47;9.63;;;-0.30;83.10;;;;;;5051185;28;20563;-71
2021/01/15 09:30:56;;;;;;;16.90;9.07;;;-0.30;82.80;;;;;;5051035;28;20216;-73
2021/01/15 09:33:22;;;;;;;21.80;10.70;;;-0.30;82.50;;;;;;5050485;28;20215;-71
2021/01/15 09:35:47;;;;;;;24.43;10.47;;;-0.20;82.70;;;;;;5051462;28;20222;-71
2021/01/15 09:38:13;;;;;;;24.50;9.07;;;-0.20;82.20;;;;;;5052977;28;20200;-74
2021/01/15 09:40:39;;;;;;;25.27;10.17;;;-0.20;81.90;;;;;;5061682;28;20207;-72
2021/01/15 09:43:04;;;;;;;18.33;9.40;;;-0.20;82.20;;;;;;5050841;28;20212;-73
2021/01/15 09:45:30;;;;;;;17.33;9.60;;;-0.20;81.80;;;;;;5050353;28;20211;-71
2021/01/15 09:47:56;;;;;;;22.67;10.40;;;-0.20;81.80;;;;;;5050042;28;20863;-71
2021/01/15 09:50:21;;;;;;;17.87;9.40;;;-0.20;81.80;;;;;;5051077;28;20181;-72
2021/01/15 09:52:50;;;;;;;18.77;10.10;;;-0.20;81.70;;;;;;5064836;28;20226;-71
2021/01/15 09:55:17;;;;;;;22.15;10.20;;;-0.30;81.70;;;;;;5037649;28;21017;-72
2021/01/15 09:57:47;;;;;;;18.65;9.27;;;-0.20;81.70;;;;;;5051814;28;20188;-71
2021/01/15 10:00:13;;;;;;;25.23;10.70;;;-0.20;81.40;;;;;;5063240;28;20268;-72
2021/01/15 10:02:39;;;;;;;15.80;9.75;;;-0.10;81.40;;;;;;5051016;28;20208;-70
2021/01/15 10:05:05;;;;;;;17.43;9.70;;;-0.10;80.90;;;;;;5051138;28;20215;-72
2021/01/15 10:07:31;;;;;;;21.00;9.02;;;0.00;80.60;;;;;;5052305;28;20502;-71
2021/01/15 10:09:56;;;;;;;21.90;9.97;;;0.00;80.00;;;;;;5059119;28;20674;-73
2021/01/15 10:12:22;;;;;;;17.23;8.57;;;0.00;79.90;;;;;;5055624;28;20551;-72
2021/01/15 10:14:48;;;;;;;22.50;10.57;;;0.10;80.20;;;;;;5059032;28;20272;-73
2021/01/15 10:17:14;;;;;;;22.30;10.30;;;0.20;79.90;;;;;;5055414;28;20185;-72
2021/01/15 10:19:39;;;;;;;23.40;11.00;;;0.10;80.50;;;;;;5050517;28;20752;-72
2021/01/15 10:22:05;;;;;;;21.97;9.93;;;0.00;81.40;;;;;;5050949;28;20219;-72
2021/01/15 10:24:31;;;;;;;23.13;10.73;;;0.10;81.10;;;;;;5050673;28;20241;-72
2021/01/15 10:26:56;;;;;;;20.90;10.63;;;0.10;81.20;;;;;;5050621;28;20192;-72
2021/01/15 10:29:22;;;;;;;20.47;10.30;;;0.20;81.20;;;;;;5050322;28;20230;-73
2021/01/15 10:31:54;;;;;;;19.77;10.80;;;0.30;81.70;;;;;;5049421;28;20188;-72
2021/01/15 10:34:23;;;;;;;18.67;10.18;;;0.60;81.20;;;;;;5048186;28;20208;-71
2021/01/15 10:36:50;;;;;;;20.60;10.40;;;1.00;79.70;;;;;;5050296;28;20196;-73
2021/01/15 10:39:17;;;;;;;21.95;10.77;;;1.30;77.60;;;;;;5050495;28;20613;-73
2021/01/15 10:41:44;;;;;;;18.75;9.57;;;1.40;75.90;;;;;;5049968;28;20204;-73
2021/01/15 10:44:12;;;;;;;22.90;11.10;;;1.60;75.80;;;;;;5048839;28;20678;-74
2021/01/15 10:46:40;;;;;;;25.02;10.82;;;2.00;74.90;;;;;;5050439;28;20189;-71
2021/01/15 10:49:10;;;;;;;23.45;9.98;;;2.40;72.30;;;;;;5049356;28;20184;-72
2021/01/15 10:51:50;;;;;;;17.70;9.77;;;2.30;71.10;;;;;;5050343;28;20558;-72
2021/01/15 10:54:16;;;;;;;21.50;10.07;;;2.40;71.10;;;;;;5049587;28;20180;-72
2021/01/15 10:56:44;;;;;;;20.03;11.07;;;2.70;70.70;;;;;;5051236;28;20712;-74
2021/01/15 10:59:10;;;;;;;20.73;10.25;;;2.80;69.70;;;;;;5063138;28;20904;-72
2021/01/15 11:01:44;;;;;;;20.95;10.65;;;2.80;68.80;;;;;;5050216;28;20208;-71
2021/01/15 11:04:11;;;;;;;17.25;9.05;;;3.00;69.10;;;;;;5051253;28;20181;-71
2021/01/15 11:06:38;;;;;;;19.93;10.10;;;2.60;68.20;;;;;;5051826;28;20207;-73
2021/01/15 11:09:09;;;;;;;23.37;10.90;;;2.30;69.50;;;;;;5053048;28;20422;-72
2021/01/15 11:11:34;;;;;;;15.13;9.65;;;2.40;70.50;;;;;;5050804;28;20423;-74
2021/01/15 11:14:01;;;;;;;21.70;10.63;;;2.60;70.50;;;;;;5050512;28;20191;-73
2021/01/15 11:16:26;;;;;;;19.63;10.83;;;2.70;69.80;;;;;;5059178;28;20450;-73
2021/01/15 11:18:53;;;;;;;22.17;10.93;;;2.70;69.90;;;;;;5071196;28;20428;-71
2021/01/15 11:21:28;;;;;;;23.33;10.50;;;2.60;70.70;;;;;;5064980;28;20196;-72
2021/01/15 11:23:54;;;;;;;23.10;10.65;;;2.50;71.10;;;;;;5070213;28;20472;-71
2021/01/15 11:26:24;;;;;;;23.52;11.80;;;2.20;71.00;;;;;;5068890;28;20287;-72
2021/01/15 11:28:52;;;;;;;21.88;11.23;;;1.80;72.30;;;;;;5059350;28;20191;-72
2021/01/15 11:31:17;;;;;;;21.95;11.55;;;1.70;73.70;;;;;;5047694;28;20659;-72
2021/01/15 11:33:44;;;;;;;21.73;10.93;;;1.60;74.20;;;;;;5048373;28;20234;-73
2021/01/15 11:36:10;;;;;;;16.75;9.40;;;1.60;74.30;;;;;;5047812;28;20640;-73
2021/01/15 11:38:36;;;;;;;19.17;9.90;;;1.40;72.90;;;;;;5051040;28;20179;-72
2021/01/15 11:41:02;;;;;;;19.23;10.30;;;1.30;74.00;;;;;;5047046;28;20609;-72
2021/01/15 11:43:33;;;;;;;23.43;9.47;;;1.20;74.90;;;;;;5048526;28;20469;-72
2021/01/15 11:45:58;;;;;;;21.83;10.45;;;1.20;74.90;;;;;;5047119;28;20467;-73
2021/01/15 11:48:24;;;;;;;23.27;10.73;;;1.20;75.50;;;;;;5048224;28;20235;-73
2021/01/15 11:50:50;;;;;;;21.93;11.13;;;1.30;75.50;;;;;;5047722;28;20195;-73
2021/01/15 11:53:15;;;;;;;26.40;11.80;;;1.40;75.50;;;;;;5046795;28;20454;-74
2021/01/15 11:55:41;;;;;;;24.47;11.60;;;1.40;75.80;;;;;;5048295;28;20584;-73
2021/01/15 11:58:07;;;;;;;26.00;11.80;;;1.30;75.90;;;;;;5048623;28;20180;-72
2021/01/15 12:00:33;;;;;;;22.20;11.37;;;1.30;76.50;;;;;;5047841;28;20709;-74
2021/01/15 12:02:59;;;;;;;31.13;11.90;;;1.30;76.50;;;;;;5050038;28;20268;-74
2021/01/15 12:05:24;;;;;;;23.15;11.90;;;1.30;75.70;;;;;;5046811;28;20219;-73
2021/01/15 12:07:50;;;;;;;22.73;11.37;;;1.40;75.90;;;;;;5049036;28;20594;-73
2021/01/15 12:10:16;;;;;;;20.67;10.90;;;1.40;75.50;;;;;;5047752;28;20272;-74
2021/01/15 12:12:41;;;;;;;25.37;10.60;;;1.40;75.80;;;;;;5047573;28;20603;-74
2021/01/15 12:15:08;;;;;;;17.97;10.43;;;1.40;75.40;;;;;;5047193;28;20630;-74
2021/01/15 12:17:35;;;;;;;21.45;10.80;;;1.50;75.20;;;;;;5047291;28;20211;-74
2021/01/15 12:20:01;;;;;;;19.30;10.73;;;1.50;75.40;;;;;;5047510;28;20196;-73
2021/01/15 12:22:26;;;;;;;25.73;11.10;;;1.50;74.80;;;;;;5047029;28;20200;-72
2021/01/15 12:24:52;;;;;;;24.70;11.80;;;1.50;75.10;;;;;;5045232;28;20207;-73
2021/01/15 12:27:18;;;;;;;25.03;10.43;;;1.50;74.30;;;;;;5049123;28;20176;-74
2021/01/15 12:29:44;;;;;;;23.40;11.17;;;1.50;74.50;;;;;;5047144;28;20454;-72
2021/01/15 12:32:10;;;;;;;18.23;10.17;;;1.60;73.70;;;;;;5048197;28;20415;-72
2021/01/15 12:34:36;;;;;;;24.17;11.00;;;1.60;74.00;;;;;;5051457;28;21011;-73
2021/01/15 12:37:02;;;;;;;20.90;9.83;;;1.60;73.70;;;;;;5053772;28;20422;-73
2021/01/15 12:39:27;;;;;;;24.20;10.60;;;1.70;73.70;;;;;;5052403;28;20196;-71
2021/01/15 12:41:53;;;;;;;17.63;9.80;;;1.80;73.60;;;;;;5069529;28;20454;-71
2021/01/15 12:44:19;;;;;;;21.43;10.43;;;1.90;72.40;;;;;;5061300;28;20530;-74
2021/01/15 12:46:44;;;;;;;18.03;10.47;;;2.00;72.10;;;;;;5052277;28;20191;-74
2021/01/15 12:49:10;;;;;;;20.83;10.10;;;2.10;71.80;;;;;;5050160;28;20262;-71
2021/01/15 12:51:36;;;;;;;15.60;9.03;;;2.20;70.10;;;;;;5066035;28;20196;-72
2021/01/15 12:54:01;;;;;;;16.80;7.90;;;2.20;69.50;;;;;;5052447;28;20211;-72